sensor_id;sensor_type;location;lat;lon;timestamp;P1;durP1;ratioP1;P2;durP2;ratioP2
68357;SDS011;55276;53.260;50.222;2022-12-07T19:36:23;34.30;;;12.30;;
68357;SDS011;55276;53.260;50.222;2022-12-07T19:38:50;37.28;;;12.23;;
68357;SDS011;55276;53.260;50.222;2022-12-07T19:41:17;38.25;;;10.95;;
68357;SDS011;55276;53.260;50.222;2022-12-07T19:43:58;32.38;;;12.30;;
68357;SDS011;55276;53.260;50.222;2022-12-07T19:46:26;25.23;;;9.30;;
68357;SDS011;55276;53.260;50.222;2022-12-07T19:48:52;32.47;;;11.07;;
68357;SDS011;55276;53.260;50.222;2022-12-07T19:51:19;30.05;;;10.82;;
68357;SDS011;55276;53.260;50.222;2022-12-07T19:53:45;35.28;;;10.15;;
68357;SDS011;55276;53.260;50.222;2022-12-07T19:56:15;31.30;;;10.70;;
68357;SDS011;55276;53.260;50.222;2022-12-07T19:58:43;33.78;;;9.60;;
68357;SDS011;55276;53.260;50.222;2022-12-07T20:01:09;32.37;;;10.40;;
68357;SDS011;55276;53.260;50.222;2022-12-07T20:03:36;33.85;;;9.82;;
68357;SDS011;55276;53.260;50.222;2022-12-07T20:06:09;28.05;;;10.15;;
68357;SDS011;55276;53.260;50.222;2022-12-07T20:08:38;39.65;;;9.65;;
68357;SDS011;55276;53.260;50.222;2022-12-07T20:11:05;33.03;;;9.75;;
68357;SDS011;55276;53.260;50.222;2022-12-07T20:13:52;32.15;;;9.77;;
68357;SDS011;55276;53.260;50.222;2022-12-07T20:16:19;26.50;;;8.57;;
68357;SDS011;55276;53.260;50.222;2022-12-07T20:18:46;22.00;;;8.73;;
68357;SDS011;55276;53.260;50.222;2022-12-07T20:21:14;24.85;;;7.97;;
68357;SDS011;55276;53.260;50.222;2022-12-07T20:23:42;27.40;;;9.00;;
68357;SDS011;55276;53.260;50.222;2022-12-07T20:26:10;28.35;;;8.13;;
68357;SDS011;55276;53.260;50.222;2022-12-07T20:28:37;26.13;;;8.27;;
68357;SDS011;55276;53.260;50.222;2022-12-07T20:31:04;23.10;;;8.00;;
68357;SDS011;55276;53.260;50.222;2022-12-07T20:33:32;19.10;;;6.95;;
68357;SDS011;55276;53.260;50.222;2022-12-07T20:36:02;25.70;;;8.25;;
68357;SDS011;55276;53.260;50.222;2022-12-07T20:42:47;38.75;;;8.35;;
68357;SDS011;55276;53.260;50.222;2022-12-07T20:45:20;25.58;;;8.35;;
68357;SDS011;55276;53.260;50.222;2022-12-07T20:47:47;23.40;;;7.95;;
68357;SDS011;55276;53.260;50.222;2022-12-07T20:50:14;28.98;;;8.85;;
68357;SDS011;55276;53.260;50.222;2022-12-07T20:52:40;25.05;;;8.45;;
68357;SDS011;55276;53.260;50.222;2022-12-07T20:55:11;23.63;;;9.00;;
68357;SDS011;55276;53.260;50.222;2022-12-07T20:57:40;33.00;;;9.70;;
68357;SDS011;55276;53.260;50.222;2022-12-07T21:00:08;29.95;;;9.75;;
68357;SDS011;55276;53.260;50.222;2022-12-07T21:02:45;29.48;;;9.13;;
68357;SDS011;55276;53.260;50.222;2022-12-07T21:05:15;30.70;;;9.20;;
68357;SDS011;55276;53.260;50.222;2022-12-07T21:07:43;27.00;;;9.23;;
68357;SDS011;55276;53.260;50.222;2022-12-07T21:10:13;31.85;;;9.57;;
68357;SDS011;55276;53.260;50.222;2022-12-07T21:12:43;25.55;;;9.32;;
68357;SDS011;55276;53.260;50.222;2022-12-07T21:15:54;25.17;;;9.13;;
68357;SDS011;55276;53.260;50.222;2022-12-07T21:18:33;26.80;;;9.52;;
68357;SDS011;55276;53.260;50.222;2022-12-07T21:21:14;31.10;;;9.05;;
68357;SDS011;55276;53.260;50.222;2022-12-07T21:23:46;28.15;;;9.57;;
68357;SDS011;55276;53.260;50.222;2022-12-07T21:26:16;28.02;;;9.20;;
68357;SDS011;55276;53.260;50.222;2022-12-07T21:28:46;35.17;;;9.55;;
68357;SDS011;55276;53.260;50.222;2022-12-07T21:31:14;26.90;;;9.65;;
68357;SDS011;55276;53.260;50.222;2022-12-07T21:33:41;25.40;;;8.98;;
68357;SDS011;55276;53.260;50.222;2022-12-07T21:36:15;23.85;;;8.82;;
68357;SDS011;55276;53.260;50.222;2022-12-07T21:38:43;30.08;;;9.20;;
68357;SDS011;55276;53.260;50.222;2022-12-07T21:43:50;29.33;;;9.88;;
68357;SDS011;55276;53.260;50.222;2022-12-07T21:46:17;33.70;;;10.10;;
68357;SDS011;55276;53.260;50.222;2022-12-07T21:48:48;33.70;;;11.25;;
68357;SDS011;55276;53.260;50.222;2022-12-07T21:51:15;37.78;;;9.77;;
68357;SDS011;55276;53.260;50.222;2022-12-07T21:53:42;30.77;;;9.88;;
68357;SDS011;55276;53.260;50.222;2022-12-07T21:56:16;35.40;;;10.25;;
68357;SDS011;55276;53.260;50.222;2022-12-07T21:58:47;26.42;;;9.02;;
68357;SDS011;55276;53.260;50.222;2022-12-07T22:01:14;29.70;;;9.00;;
68357;SDS011;55276;53.260;50.222;2022-12-07T22:03:51;17.80;;;8.10;;
68357;SDS011;55276;53.260;50.222;2022-12-07T22:06:19;33.47;;;8.50;;
68357;SDS011;55276;53.260;50.222;2022-12-07T22:08:47;26.67;;;8.52;;
68357;SDS011;55276;53.260;50.222;2022-12-07T22:11:15;24.17;;;8.70;;
68357;SDS011;55276;53.260;50.222;2022-12-07T22:13:42;21.08;;;8.05;;
68357;SDS011;55276;53.260;50.222;2022-12-07T22:16:31;20.50;;;7.55;;
68357;SDS011;55276;53.260;50.222;2022-12-07T22:18:58;26.27;;;8.25;;
68357;SDS011;55276;53.260;50.222;2022-12-07T22:21:30;24.35;;;7.82;;
68357;SDS011;55276;53.260;50.222;2022-12-07T22:23:56;21.50;;;7.80;;
68357;SDS011;55276;53.260;50.222;2022-12-07T22:26:23;23.75;;;7.70;;
68357;SDS011;55276;53.260;50.222;2022-12-07T22:28:50;27.25;;;8.30;;
68357;SDS011;55276;53.260;50.222;2022-12-07T22:31:17;25.70;;;7.88;;
68357;SDS011;55276;53.260;50.222;2022-12-07T22:33:46;23.48;;;7.70;;
68357;SDS011;55276;53.260;50.222;2022-12-07T22:36:13;24.02;;;7.60;;
68357;SDS011;55276;53.260;50.222;2022-12-07T22:38:42;22.38;;;8.07;;
68357;SDS011;55276;53.260;50.222;2022-12-07T22:43:48;20.33;;;7.25;;
68357;SDS011;55276;53.260;50.222;2022-12-07T22:46:45;22.75;;;7.25;;
68357;SDS011;55276;53.260;50.222;2022-12-07T22:49:11;33.92;;;7.97;;
68357;SDS011;55276;53.260;50.222;2022-12-07T22:54:29;28.27;;;8.00;;
68357;SDS011;55276;53.260;50.222;2022-12-07T22:56:56;25.25;;;6.95;;
68357;SDS011;55276;53.260;50.222;2022-12-07T22:59:24;24.10;;;7.63;;
68357;SDS011;55276;53.260;50.222;2022-12-07T23:01:50;23.13;;;8.13;;
68357;SDS011;55276;53.260;50.222;2022-12-07T23:04:22;26.30;;;8.35;;
68357;SDS011;55276;53.260;50.222;2022-12-07T23:06:48;26.67;;;6.85;;
68357;SDS011;55276;53.260;50.222;2022-12-07T23:09:16;22.95;;;7.88;;
68357;SDS011;55276;53.260;50.222;2022-12-07T23:11:42;23.83;;;7.43;;
68357;SDS011;55276;53.260;50.222;2022-12-07T23:14:30;24.60;;;7.53;;
68357;SDS011;55276;53.260;50.222;2022-12-07T23:16:59;21.05;;;8.05;;
68357;SDS011;55276;53.260;50.222;2022-12-07T23:21:53;20.50;;;7.00;;
68357;SDS011;55276;53.260;50.222;2022-12-07T23:24:19;28.23;;;8.32;;
68357;SDS011;55276;53.260;50.222;2022-12-07T23:26:46;25.67;;;8.48;;
68357;SDS011;55276;53.260;50.222;2022-12-07T23:29:13;29.92;;;7.97;;
68357;SDS011;55276;53.260;50.222;2022-12-07T23:31:40;22.15;;;8.10;;
68357;SDS011;55276;53.260;50.222;2022-12-07T23:34:06;23.25;;;8.43;;
68357;SDS011;55276;53.260;50.222;2022-12-07T23:36:34;23.80;;;8.40;;
68357;SDS011;55276;53.260;50.222;2022-12-07T23:39:00;25.13;;;8.02;;
68357;SDS011;55276;53.260;50.222;2022-12-07T23:41:27;28.88;;;8.20;;
68357;SDS011;55276;53.260;50.222;2022-12-07T23:43:57;22.38;;;8.25;;
68357;SDS011;55276;53.260;50.222;2022-12-07T23:46:28;20.90;;;7.40;;
68357;SDS011;55276;53.260;50.222;2022-12-07T23:48:56;22.77;;;7.80;;
68357;SDS011;55276;53.260;50.222;2022-12-07T23:51:24;24.40;;;7.28;;
68357;SDS011;55276;53.260;50.222;2022-12-07T23:53:51;20.85;;;7.40;;
68357;SDS011;55276;53.260;50.222;2022-12-07T23:56:19;22.30;;;7.75;;
68357;SDS011;55276;53.260;50.222;2022-12-07T23:58:50;24.23;;;7.75;;
